Benvolgut visitant, si us plau, ingressa Recuperar contrasenya
AVAMET paisatges
Union Alcoyana

Llucena

Dades diàries. Acumulats / Últims 30 dies disponibles

Data Temperatura (°C) Humitat rel. (%) Pressió rel. (hPa) Vent (km/h) Precipitació
Mínima Mitjana Màxima Amplitud
tèrmica
Mínima Mitjana Màxima Mínima Mitjana Màxima Predom. Mitjana Ràfega
màxima
Total
(mm)
Índex-n
Mínima Mitjana Màxima Mínima Mitjana Màxima n
0 a 1
P0 max
mm 5'
Dades mensuals acumulades fins l'últim dia disponible
05/2022 9,6 14,1 21,6 17,7 12,3 21,6 29,8 20,2 21 60 95 1.005 1.017 1.024   10,6 57,9 59,6
Dades anuals acumulades fins l'últim dia disponible
2022 -0,5 8,5 21,6 11,5 6,4 15,3 29,8 30,3 9 63 100 995 1.019 1.035   11,7 120,7 328,4
Últims 30 dies disponibles
27-05-2022 14,9     19,6     23,6 8,7 45 58 71 1.016 1.018 1.020 SE 11,6 33,8 0,0
26-05-2022 12,1     16,8     21,5 9,4 43 55 70 1.019 1.021 1.022 SE 10,0 40,2 0,0
25-05-2022 10,4     14,0     17,3 6,9 49 61 75 1.011 1.016 1.021 NNW 10,1 57,9 0,0
24-05-2022 10,9     16,8     20,5 9,6 61 70 84 1.005 1.007 1.011 NW 11,4 43,5 4,2 0,46 1,10
23-05-2022 18,8     22,1     26,4 7,6 38 49 71 1.005 1.006 1.008 SE 10,8 43,5 0,0
22-05-2022 21,6     24,8     29,8 8,2 21 36 55 1.007 1.011 1.016 SE 9,5 33,8 0,0
21-05-2022 18,4     22,2     26,8 8,4 39 47 60 1.016 1.019 1.023 SE 9,5 37,0 0,0
20-05-2022 16,3     21,4     26,6 10,3 40 51 61 1.022 1.023 1.024 SE 9,7 30,6 0,0
19-05-2022 18,2     21,1     24,7 6,5 45 56 72 1.017 1.020 1.022 SE 10,1 40,2 0,0
18-05-2022 19,1     22,2     25,3 6,2 50 59 70 1.016 1.017 1.018 SE 11,6 30,6 0,0
17-05-2022 17,8     21,3     25,7 7,9 53 61 70 1.016 1.017 1.019 SE 10,1 38,6 0,0
16-05-2022 16,2     20,8     24,9 8,7 43 54 67 1.016 1.017 1.019 SE 11,1 41,8 0,0
15-05-2022 15,4     18,9     23,1 7,7 40 56 70 1.014 1.015 1.017 SE 11,4 40,2 0,0
14-05-2022 15,4     18,5     22,0 6,6 55 62 75 1.016 1.017 1.020 SE 9,5 33,8 0,0
13-05-2022 13,8     17,6     21,9 8,1 50 62 77 1.019 1.020 1.021 SE 8,5 30,6 0,0
12-05-2022 11,8     15,9     20,5 8,7 48 61 77 1.019 1.020 1.021 SE 9,8 38,6 0,0
11-05-2022 13,9     17,6     21,3 7,4 39 55 75 1.019 1.019 1.021 SE 10,5 43,5 0,0
10-05-2022 13,2     17,1     21,4 8,2 41 52 63 1.021 1.021 1.023 SE 11,6 40,2 0,0
09-05-2022 12,6     16,4     20,4 7,8 38 54 66 1.020 1.021 1.023 SE 13,4 45,1 0,0
08-05-2022 12,7     16,3     19,8 7,1 48 57 67 1.017 1.018 1.020 SE 12,2 37,0 0,0
07-05-2022 11,8     16,4     20,6 8,8 38 47 58 1.017 1.019 1.019 SE 11,1 38,6 0,0
06-05-2022 10,2     14,9     19,7 9,5 38 55 74 1.018 1.019 1.021 SE 10,6 38,6 0,0
05-05-2022 11,3     14,2     18,6 7,3 56 72 83 1.017 1.019 1.021 SE 7,4 32,2 0,0
04-05-2022 10,9     12,5     15,1 4,2 62 77 92 1.014 1.016 1.018 NNE 12,4 45,1 1,4
03-05-2022 9,6     10,8     12,3 2,7 73 89 95 1.009 1.012 1.015 NNE 14,0 54,7 43,4 0,48 1,70
02-05-2022 11,5     13,0     15,2 3,7 78 88 95 1.009 1.012 1.015 SE 7,2 30,6 7,2 0,32 1,00
01-05-2022 12,4     15,7     19,0 6,6 51 63 91 1.014 1.016 1.018 SE 10,6 37,0 3,4 0,11 0,60
30-04-2022 13,4     16,2     20,3 6,9 51 64 86 1.017 1.019 1.022 SO 10,2 32,2 1,6
29-04-2022 13,3     16,1     19,5 6,2 44 62 75 1.021 1.022 1.024 SE 10,8 37,0 0,0
28-04-2022 10,1     13,2     16,5 6,4 47 73 94 1.016 1.019 1.023 N 12,2 59,5 6,4 0,42 0,60
Últims 13 mesos disponibles
04/2022 -0,5 8,8 14,6 12,1 6,4 15,8 23,3 23,8 31 63 95 998 1.013 1.022 SE 12,2 103,0 84,8
03/2022 4,4 7,0 10,5 9,0 6,5 11,8 17,1 12,7 60 80 97 1.001 1.018 1.026 SE 13,8 80,5 169,4
02/2022 3,7 7,2 13,0 10,5 8,1 14,9 22,5 18,8 29 61 96 1.014 1.023 1.031 SE 9,6 104,6 11,0
01/2022 1,4 6,0 15,4 9,1 6,6 13,2 22,6 21,2 23 51 89 1.009 1.025 1.033 NW 12,3 120,7 1,6
12/2021 4,2 8,1 14,7 11,2 9,2 14,8 20,7 16,5 29 62 89 1.006 1.018 1.029 NW 12,7 122,3 0,6
11/2021 3,8 7,9 12,8 10,7 7,9 14,3 21,6 17,8 32 61 83 1.002 1.014 1.028 NW 10,8 98,2 32,8
10/2021 9,9 12,7 15,8 16,0 16,8 20,3 26,3 16,4 51 73 85 1.007 1.018 1.025 SE 9,3 51,5 11,0
09/2021 11,2 16,6 19,9 19,9 18,9 24,0 26,7 15,5 59 76 90 1.012 1.016 1.023 SE 9,3 74,0 90,8
Tots els anys disponibles
Temperatura (°C)
Humitat relativa (%)
Velocitat del vent i ràfega màxima (km/h)
Direcció del vent (°)
Pressió (hPa)
Precipitació (mm)
Nota sobre les dades: s'avisa a l'usuari de la provisionalitat i no oficialitat d'aquestes dades
Logo AVAMET blanc
Web allotjada a Sollutia
Llicència de Creative CommonsLa web d'AVAMET i els seus continguts estan subjectes a una llicència de
Reconeixement - No Comercial - Compartir igual
Avís legal - Política de privacitat - Política de cookies
NOVES ESTACIONS:  l'Alqueria d'Asnar (Ajuntament/Soci), les Alqueries - Cap del Terme (Soci), Vila-real - les Solaes (Soci), Calles - Parque de Emergencias (Soci), Bocairent - els Corrals (Soci), Sella - el Xarquer, Xàbia - Far del Cap de la Nau (Soci), Benicàssim - Quadre de Santiago (Soci), Sant Mateu - IES Maestrat (Soci)  / el Palomar (Ajuntament/Soci) / Atzeneta del Maestrat - Pla de Meanes (Ajuntament/Soci) / Onda - Sant Gil (Soci) / Onda - Ràtils CR Cota 220 (Soci) / la Vila Joiosa (Ajuntament/Soci) / Miramar - Platja (Ajuntament/Soci) / Massanassa - IES Massanassa (Soci) / Culla - Pla de les Vinyes (Ajuntament/Soci) - - -